createdAt,value
2018-07-09T00:00:39.601Z,52.80
2018-07-09T00:03:10.976Z,53.10
2018-07-09T00:05:40.565Z,53.20
2018-07-09T00:08:09.333Z,53.10
2018-07-09T00:10:51.096Z,53.20
2018-07-09T00:13:19.587Z,53.10
2018-07-09T00:15:47.121Z,53.00
2018-07-09T00:18:14.899Z,53.10
2018-07-09T00:23:10.084Z,52.60
2018-07-09T00:25:37.602Z,52.40
2018-07-09T00:28:05.338Z,52.20
2018-07-09T00:30:32.912Z,53.10
2018-07-09T00:33:00.454Z,52.80
2018-07-09T00:35:27.977Z,53.10
2018-07-09T00:37:55.501Z,52.70
2018-07-09T00:40:23.329Z,53.00
2018-07-09T00:42:51.838Z,52.90
2018-07-09T00:45:19.370Z,52.90
2018-07-09T00:47:47.654Z,52.80
2018-07-09T00:50:15.213Z,52.30
2018-07-09T00:52:42.967Z,52.80
2018-07-09T00:55:10.453Z,52.80
2018-07-09T00:57:38.064Z,52.90
2018-07-09T01:00:05.671Z,52.90
2018-07-09T01:02:33.184Z,52.50
2018-07-09T01:05:00.684Z,52.80
2018-07-09T01:07:28.235Z,52.70
2018-07-09T01:09:55.803Z,52.70
2018-07-09T01:12:23.276Z,53.40
2018-07-09T01:14:50.795Z,53.40
2018-07-09T01:17:18.274Z,53.20
2018-07-09T01:19:45.841Z,53.40
2018-07-09T01:22:13.453Z,52.80
2018-07-09T01:24:41.355Z,52.80
2018-07-09T01:27:08.828Z,52.80
2018-07-09T01:29:36.328Z,52.80
2018-07-09T01:32:03.832Z,53.10
2018-07-09T01:34:31.444Z,54.60
2018-07-09T01:36:59.746Z,53.90
2018-07-09T01:39:27.716Z,54.20
2018-07-09T01:41:55.197Z,54.20
2018-07-09T01:44:22.803Z,54.20
2018-07-09T01:46:50.309Z,54.50
2018-07-09T01:49:17.823Z,54.80
2018-07-09T01:51:45.371Z,55.20
2018-07-09T01:54:13.046Z,55.70
2018-07-09T01:56:40.661Z,55.30
2018-07-09T01:59:08.188Z,55.80
2018-07-09T02:01:35.719Z,55.80
2018-07-09T02:04:03.283Z,55.90
2018-07-09T02:06:31.044Z,56.20
2018-07-09T02:08:58.635Z,56.60
2018-07-09T02:11:26.157Z,57.40
2018-07-09T02:13:53.724Z,56.90
2018-07-09T02:16:21.283Z,57.50
2018-07-09T02:18:48.772Z,56.80
2018-07-09T02:21:16.345Z,57.50
2018-07-09T02:23:43.942Z,58.30
2018-07-09T02:26:11.539Z,58.50
2018-07-09T02:28:39.053Z,58.50
2018-07-09T02:31:06.555Z,58.50
2018-07-09T02:33:34.094Z,58.50
2018-07-09T02:38:29.058Z,58.70
2018-07-09T02:40:56.562Z,59.60
2018-07-09T02:43:24.062Z,59.30
2018-07-09T02:45:51.515Z,59.90
2018-07-09T02:48:19.053Z,60.00
2018-07-09T02:50:46.620Z,60.10
2018-07-09T02:53:14.180Z,60.40
2018-07-09T02:55:41.706Z,60.10
2018-07-09T02:58:09.244Z,59.80
2018-07-09T03:00:36.778Z,60.10
2018-07-09T03:03:04.364Z,60.00
2018-07-09T03:05:31.893Z,59.70
2018-07-09T03:07:59.378Z,59.90
2018-07-09T03:10:26.869Z,60.50
2018-07-09T03:12:54.447Z,60.70
2018-07-09T03:15:21.973Z,61.50
2018-07-09T03:17:49.463Z,61.20
2018-07-09T03:20:17.016Z,61.30
2018-07-09T03:22:44.537Z,62.00
2018-07-09T03:25:12.085Z,63.00
2018-07-09T03:27:39.688Z,62.10
2018-07-09T03:30:07.208Z,62.60
2018-07-09T03:32:34.817Z,63.50
2018-07-09T03:35:02.359Z,62.70
2018-07-09T03:37:29.873Z,63.10
2018-07-09T03:39:57.384Z,63.50
2018-07-09T03:42:24.938Z,63.10
2018-07-09T03:44:52.504Z,62.80
2018-07-09T03:47:20.049Z,63.10
2018-07-09T03:49:47.681Z,63.50
2018-07-09T03:52:15.193Z,63.50
2018-07-09T03:54:42.712Z,63.30
2018-07-09T03:57:10.214Z,63.40
2018-07-09T03:59:37.983Z,63.20
2018-07-09T04:02:05.656Z,62.90
2018-07-09T04:04:33.332Z,63.10
2018-07-09T04:07:00.852Z,62.90
2018-07-09T04:09:28.390Z,63.40
2018-07-09T04:11:55.900Z,63.60
2018-07-09T04:14:23.389Z,63.50
2018-07-09T04:16:50.860Z,63.70
2018-07-09T04:19:18.339Z,63.70
2018-07-09T04:21:45.869Z,63.70
2018-07-09T04:24:13.389Z,62.90
2018-07-09T04:26:41.172Z,63.70
2018-07-09T04:29:08.773Z,63.20
2018-07-09T04:31:36.329Z,63.70
2018-07-09T04:34:03.984Z,63.70
2018-07-09T04:36:31.437Z,64.50
2018-07-09T04:38:58.910Z,63.90
2018-07-09T04:41:26.553Z,63.30
2018-07-09T04:43:54.077Z,63.80
2018-07-09T04:48:48.980Z,64.00
2018-07-09T04:51:16.473Z,63.90
2018-07-09T04:53:44.464Z,63.90
2018-07-09T04:56:12.105Z,63.90
2018-07-09T04:58:39.664Z,63.30
2018-07-09T05:01:07.226Z,63.30
2018-07-09T05:03:34.760Z,63.00
2018-07-09T05:06:02.341Z,62.20
2018-07-09T05:08:29.884Z,62.70
2018-07-09T05:10:58.506Z,63.10
2018-07-09T05:13:26.028Z,62.90
2018-07-09T05:15:53.591Z,63.10
2018-07-09T05:18:21.521Z,62.90
2018-07-09T05:20:49.282Z,62.50
2018-07-09T05:23:17.086Z,60.80
2018-07-09T05:25:44.714Z,61.10
2018-07-09T05:28:12.954Z,60.90
2018-07-09T05:30:40.506Z,61.80
2018-07-09T05:33:08.141Z,60.50
2018-07-09T05:35:35.895Z,59.80
2018-07-09T05:38:03.531Z,59.80
2018-07-09T05:40:31.195Z,59.80
2018-07-09T05:42:58.840Z,59.90
2018-07-09T05:45:26.490Z,60.00
2018-07-09T05:47:54.219Z,59.10
2018-07-09T05:50:22.249Z,57.00
2018-07-09T05:52:50.213Z,54.50
2018-07-09T05:55:17.810Z,52.30
2018-07-09T05:57:45.390Z,47.30
2018-07-09T06:00:13.050Z,44.00
2018-07-09T06:02:40.591Z,40.30
2018-07-09T06:05:08.366Z,38.70
2018-07-09T06:07:36.010Z,37.40
2018-07-09T06:10:03.789Z,36.70
2018-07-09T06:12:32.326Z,36.00
2018-07-09T06:15:00.169Z,36.50
2018-07-09T06:17:27.894Z,35.70
2018-07-09T06:19:55.564Z,36.20
2018-07-09T06:22:23.263Z,36.10
2018-07-09T06:24:51.238Z,37.00
2018-07-09T06:27:18.877Z,35.80
2018-07-09T06:29:46.551Z,35.70
2018-07-09T06:32:14.216Z,35.90
2018-07-09T06:34:41.904Z,36.40
2018-07-09T06:37:09.464Z,36.20
2018-07-09T06:39:37.125Z,36.10
2018-07-09T06:42:04.725Z,37.20
2018-07-09T06:44:32.276Z,36.90
2018-07-09T06:46:59.916Z,36.70
2018-07-09T06:49:27.744Z,36.80
2018-07-09T06:51:55.999Z,34.70
2018-07-09T06:54:23.557Z,34.80
2018-07-09T06:56:51.336Z,34.10
2018-07-09T06:59:19.738Z,31.50
2018-07-09T07:01:47.516Z,32.10
2018-07-09T07:04:15.233Z,29.90
2018-07-09T07:06:42.776Z,29.00
2018-07-09T07:09:10.423Z,30.70
2018-07-09T07:11:37.839Z,32.00
2018-07-09T07:14:05.465Z,31.40
2018-07-09T07:16:33.322Z,31.50
2018-07-09T07:19:00.949Z,32.90
2018-07-09T07:21:28.586Z,33.10
2018-07-09T07:23:56.752Z,34.60
2018-07-09T07:26:24.843Z,34.60
2018-07-09T07:28:52.791Z,35.60
2018-07-09T07:31:20.568Z,35.50
2018-07-09T07:33:48.264Z,36.00
2018-07-09T07:36:15.908Z,35.90
2018-07-09T07:38:43.473Z,37.30
2018-07-09T07:41:11.022Z,38.10
2018-07-09T07:43:38.554Z,39.50
2018-07-09T07:46:06.608Z,38.70
2018-07-09T07:48:34.314Z,40.00
2018-07-09T07:51:01.985Z,39.80
2018-07-09T07:53:29.861Z,41.50
2018-07-09T07:55:57.579Z,41.30
2018-07-09T07:58:25.154Z,41.40
2018-07-09T08:00:52.747Z,40.70
2018-07-09T08:03:20.324Z,40.10
2018-07-09T08:05:47.912Z,40.50
2018-07-09T08:08:15.517Z,40.80
2018-07-09T08:10:43.067Z,40.80
2018-07-09T08:13:27.985Z,40.80
2018-07-09T08:15:38.332Z,39.80
2018-07-09T08:18:06.087Z,41.70
2018-07-09T08:20:33.729Z,40.00
2018-07-09T08:23:01.683Z,40.50
2018-07-09T08:25:29.571Z,41.40
2018-07-09T08:27:56.971Z,40.20
2018-07-09T08:30:24.525Z,40.40
2018-07-09T08:32:52.150Z,39.20
2018-07-09T08:35:19.837Z,39.40
2018-07-09T08:37:47.443Z,40.40
2018-07-09T08:40:15.044Z,40.40
2018-07-09T08:42:42.660Z,40.50
2018-07-09T08:45:10.386Z,39.00
2018-07-09T08:47:38.064Z,36.90
2018-07-09T08:50:05.717Z,37.10
2018-07-09T08:52:33.288Z,36.90
2018-07-09T08:55:00.879Z,37.30
2018-07-09T08:57:28.456Z,36.40
2018-07-09T08:59:56.006Z,36.70
2018-07-09T09:02:23.816Z,36.80
2018-07-09T09:04:51.380Z,37.30
2018-07-09T09:07:18.974Z,36.50
2018-07-09T09:09:46.596Z,35.80
2018-07-09T09:12:14.294Z,34.00
2018-07-09T09:14:41.909Z,34.50
2018-07-09T09:17:09.848Z,33.90
2018-07-09T09:19:37.384Z,34.00
2018-07-09T09:22:05.020Z,33.90
2018-07-09T09:24:32.598Z,33.70
2018-07-09T09:27:00.329Z,34.40
2018-07-09T09:29:27.925Z,35.40
2018-07-09T09:31:55.693Z,35.00
2018-07-09T09:34:23.220Z,35.30
2018-07-09T09:36:50.767Z,35.20
2018-07-09T09:39:18.298Z,36.30
2018-07-09T09:41:45.889Z,37.60
2018-07-09T09:44:13.516Z,35.40
2018-07-09T09:46:41.104Z,34.30
2018-07-09T09:49:08.994Z,34.20
2018-07-09T09:51:36.636Z,34.20
2018-07-09T09:54:04.256Z,34.50
2018-07-09T09:56:31.828Z,36.30
2018-07-09T09:58:59.388Z,36.40
2018-07-09T10:01:27.020Z,35.80
2018-07-09T10:03:54.657Z,35.40
2018-07-09T10:06:22.253Z,34.40
2018-07-09T10:08:49.850Z,34.10
2018-07-09T10:11:17.432Z,35.80
2018-07-09T10:13:44.992Z,36.20
2018-07-09T10:16:13.071Z,36.10
2018-07-09T10:18:40.744Z,34.80
2018-07-09T10:21:08.349Z,35.30
2018-07-09T10:23:37.001Z,35.90
2018-07-09T10:26:04.597Z,34.80
2018-07-09T10:28:32.517Z,34.80
2018-07-09T10:31:00.082Z,34.60
2018-07-09T10:33:27.948Z,34.60
2018-07-09T10:35:55.497Z,34.30
2018-07-09T10:38:23.183Z,34.70
2018-07-09T10:40:50.908Z,34.50
2018-07-09T10:45:45.857Z,33.90
2018-07-09T10:48:14.000Z,33.40
2018-07-09T10:50:41.542Z,33.60
2018-07-09T10:53:09.072Z,34.30
2018-07-09T10:55:36.643Z,33.30
2018-07-09T10:58:04.450Z,32.90
2018-07-09T11:00:32.045Z,32.50
2018-07-09T11:02:59.864Z,32.40
2018-07-09T11:05:27.759Z,31.50
2018-07-09T11:07:55.379Z,30.60
2018-07-09T11:10:23.004Z,31.50
2018-07-09T11:12:50.554Z,31.70
2018-07-09T11:15:35.872Z,31.40
2018-07-09T11:20:30.993Z,31.50
2018-07-09T11:22:58.652Z,31.30
2018-07-09T11:25:26.268Z,31.00
2018-07-09T11:27:53.869Z,30.30
2018-07-09T11:30:21.488Z,29.70
2018-07-09T11:32:49.205Z,30.00
2018-07-09T11:35:17.489Z,30.40
2018-07-09T11:37:45.078Z,30.00
2018-07-09T11:40:12.645Z,30.00
2018-07-09T11:42:40.309Z,30.00
2018-07-09T11:45:07.974Z,31.30
2018-07-09T11:47:35.634Z,30.50
2018-07-09T11:50:03.197Z,29.80
2018-07-09T11:52:30.756Z,30.00
2018-07-09T11:54:58.406Z,30.50
2018-07-09T11:57:26.096Z,31.10
2018-07-09T11:59:54.123Z,30.60
2018-07-09T12:02:22.435Z,29.80
2018-07-09T12:04:50.295Z,30.30
2018-07-09T12:07:17.811Z,30.00
2018-07-09T12:09:50.856Z,30.00
2018-07-09T12:12:18.428Z,29.30
2018-07-09T12:14:46.188Z,28.80
2018-07-09T12:17:13.857Z,29.60
2018-07-09T12:19:41.531Z,29.60
2018-07-09T12:22:09.411Z,29.00
2018-07-09T12:24:37.047Z,28.20
2018-07-09T12:27:04.951Z,28.00
2018-07-09T12:29:32.565Z,28.70
2018-07-09T12:34:27.680Z,28.90
2018-07-09T12:36:55.580Z,29.80
2018-07-09T12:39:23.677Z,28.80
2018-07-09T12:41:51.273Z,29.00
2018-07-09T12:46:46.487Z,30.10
2018-07-09T12:49:14.124Z,29.20
2018-07-09T12:51:42.030Z,28.70
2018-07-09T12:54:09.927Z,28.60
2018-07-09T12:56:37.597Z,29.10
2018-07-09T12:59:05.186Z,28.80
2018-07-09T13:01:32.993Z,28.40
2018-07-09T13:04:00.540Z,28.50
2018-07-09T13:06:28.133Z,29.00
2018-07-09T13:08:56.365Z,28.70
2018-07-09T13:11:23.956Z,28.10
2018-07-09T13:13:51.616Z,27.50
2018-07-09T13:16:19.293Z,27.30
2018-07-09T13:18:46.900Z,28.80
2018-07-09T13:21:14.538Z,28.50
2018-07-09T13:23:42.165Z,28.00
2018-07-09T13:26:09.732Z,27.60
2018-07-09T13:28:37.264Z,28.40
2018-07-09T13:31:04.949Z,28.50
2018-07-09T13:33:32.543Z,28.60
2018-07-09T13:36:00.488Z,28.00
2018-07-09T13:38:29.044Z,28.80
2018-07-09T13:40:56.784Z,29.30
2018-07-09T13:43:24.432Z,28.50
2018-07-09T13:45:52.032Z,28.50
2018-07-09T13:48:19.900Z,28.70
2018-07-09T13:50:47.699Z,28.40
2018-07-09T13:53:15.308Z,28.50
2018-07-09T13:55:43.714Z,28.50
2018-07-09T13:58:11.380Z,26.80
2018-07-09T14:00:39.277Z,27.50
2018-07-09T14:03:06.938Z,27.60
2018-07-09T14:05:34.690Z,26.10
2018-07-09T14:08:02.407Z,26.60
2018-07-09T14:10:30.396Z,27.00
2018-07-09T14:12:57.972Z,27.00
2018-07-09T14:15:25.685Z,26.90
2018-07-09T14:17:53.676Z,26.20
2018-07-09T14:20:31.830Z,25.70
2018-07-09T14:23:00.150Z,25.70
2018-07-09T14:25:27.837Z,25.50
2018-07-09T14:27:55.429Z,26.20
2018-07-09T14:30:23.485Z,26.20
2018-07-09T14:32:51.468Z,26.70
2018-07-09T14:35:19.269Z,26.60
2018-07-09T14:37:47.560Z,25.90
2018-07-09T14:40:16.338Z,25.30
2018-07-09T14:42:44.420Z,25.50
2018-07-09T14:45:12.139Z,25.40
2018-07-09T14:47:39.684Z,26.50
2018-07-09T14:50:07.501Z,27.30
2018-07-09T14:52:35.837Z,26.60
2018-07-09T14:55:03.732Z,28.00
2018-07-09T14:57:31.602Z,27.40
2018-07-09T14:59:59.360Z,26.70
2018-07-09T15:02:27.342Z,27.10
2018-07-09T15:04:55.156Z,26.10
2018-07-09T15:07:23.387Z,26.80
2018-07-09T15:09:51.876Z,26.80
2018-07-09T15:12:19.684Z,26.60
2018-07-09T15:14:47.277Z,25.60
2018-07-09T15:17:15.238Z,25.20
2018-07-09T15:19:44.080Z,25.90
2018-07-09T15:22:11.749Z,26.00
2018-07-09T15:24:39.986Z,26.20
2018-07-09T15:27:07.742Z,26.20
2018-07-09T15:29:35.314Z,26.10
2018-07-09T15:32:14.993Z,25.40
2018-07-09T15:34:42.748Z,25.60
2018-07-09T15:37:10.589Z,25.70
2018-07-09T15:39:38.670Z,25.30
2018-07-09T15:42:06.385Z,26.20
2018-07-09T15:44:34.324Z,26.10
2018-07-09T15:47:02.176Z,25.80
2018-07-09T15:49:30.149Z,25.80
2018-07-09T15:51:57.859Z,25.50
2018-07-09T15:54:25.499Z,25.60
2018-07-09T15:56:53.078Z,25.60
2018-07-09T15:59:20.686Z,26.30
2018-07-09T16:01:48.299Z,26.50
2018-07-09T16:04:16.153Z,26.40
2018-07-09T16:06:44.037Z,25.90
2018-07-09T16:09:11.679Z,25.40
2018-07-09T16:11:39.296Z,24.90
2018-07-09T16:14:06.970Z,24.90
2018-07-09T16:19:02.870Z,25.50
2018-07-09T16:21:30.450Z,26.60
2018-07-09T16:23:58.068Z,24.80
2018-07-09T16:26:25.692Z,25.30
2018-07-09T16:28:53.355Z,25.20
2018-07-09T16:31:20.969Z,24.90
2018-07-09T16:33:48.558Z,25.80
2018-07-09T16:36:16.324Z,25.50
2018-07-09T16:38:51.056Z,25.60
2018-07-09T16:41:43.837Z,25.40
2018-07-09T16:44:13.651Z,25.70
2018-07-09T16:46:41.422Z,26.10
2018-07-09T16:49:09.187Z,26.40
2018-07-09T16:51:39.220Z,26.60
2018-07-09T16:54:07.183Z,27.00
2018-07-09T16:56:35.228Z,26.40
2018-07-09T16:59:05.622Z,26.80
2018-07-09T17:01:35.669Z,25.90
2018-07-09T17:04:03.461Z,26.30
2018-07-09T17:06:31.191Z,26.30
2018-07-09T17:08:59.034Z,27.90
2018-07-09T17:11:26.969Z,26.60
2018-07-09T17:13:55.121Z,27.10
2018-07-09T17:16:23.477Z,26.10
2018-07-09T17:19:02.753Z,26.40
2018-07-09T17:24:02.709Z,27.20
2018-07-09T17:26:34.854Z,28.10
2018-07-09T17:30:49.762Z,27.20
2018-07-09T17:33:20.039Z,28.00
2018-07-09T17:35:55.627Z,27.90
2018-07-09T17:38:42.213Z,27.90
2018-07-09T17:43:58.267Z,27.80
2018-07-09T17:46:31.830Z,27.80
2018-07-09T17:49:10.324Z,27.80
2018-07-09T17:51:40.476Z,27.80
2018-07-09T17:54:10.092Z,27.60
2018-07-09T17:56:38.217Z,27.60
2018-07-09T17:59:08.595Z,27.50
2018-07-09T18:01:38.692Z,27.60
2018-07-09T18:04:12.618Z,28.10
2018-07-09T18:06:54.312Z,28.20
2018-07-09T18:09:22.991Z,28.70
2018-07-09T18:11:50.788Z,29.00
2018-07-09T18:14:18.565Z,29.20
2018-07-09T18:16:46.379Z,29.50
2018-07-09T18:19:28.548Z,29.80
2018-07-09T18:22:08.184Z,29.80
2018-07-09T18:24:37.407Z,30.00
2018-07-09T18:27:05.543Z,30.40
2018-07-09T18:29:33.673Z,30.20
2018-07-09T18:32:01.424Z,30.30
2018-07-09T18:34:29.202Z,30.50
2018-07-09T18:36:57.194Z,30.40
2018-07-09T18:39:25.067Z,31.20
2018-07-09T18:41:53.025Z,31.10
2018-07-09T18:44:20.793Z,31.30
2018-07-09T18:46:49.397Z,31.70
2018-07-09T18:49:17.462Z,32.50
2018-07-09T18:51:49.370Z,32.80
2018-07-09T18:54:17.133Z,32.70
2018-07-09T18:56:45.666Z,32.70
2018-07-09T18:59:14.080Z,32.70
2018-07-09T19:01:42.039Z,33.60
2018-07-09T19:04:09.912Z,33.90
2018-07-09T19:06:56.548Z,34.20
2018-07-09T19:09:25.219Z,34.30
2018-07-09T19:11:53.323Z,34.70
2018-07-09T19:14:25.161Z,35.00
2018-07-09T19:18:05.824Z,35.10
2018-07-09T19:20:45.106Z,35.20
2018-07-09T19:23:12.059Z,34.80
2018-07-09T19:25:39.103Z,34.80
2018-07-09T19:28:06.886Z,34.90
2018-07-09T19:30:33.959Z,34.90
2018-07-09T19:33:01.035Z,34.90
2018-07-09T19:35:27.672Z,35.00
2018-07-09T19:37:54.632Z,35.30
2018-07-09T19:40:20.971Z,36.00
2018-07-09T19:42:47.493Z,36.30
2018-07-09T19:45:14.182Z,36.70
2018-07-09T19:47:40.938Z,36.80
2018-07-09T19:50:07.625Z,37.10
2018-07-09T19:52:34.203Z,37.50
2018-07-09T19:55:00.977Z,37.80
2018-07-09T19:57:27.505Z,37.80
2018-07-09T19:59:54.244Z,37.80
2018-07-09T20:02:21.731Z,37.80
2018-07-09T20:04:48.298Z,37.80
2018-07-09T20:07:15.153Z,37.80
2018-07-09T20:09:47.490Z,37.90
2018-07-09T20:12:19.611Z,37.90
2018-07-09T20:14:55.301Z,37.90
2018-07-09T20:17:27.292Z,37.90
2018-07-09T20:19:53.806Z,38.10
2018-07-09T20:22:20.384Z,38.10
2018-07-09T20:24:46.900Z,38.30
2018-07-09T20:27:13.485Z,38.90
2018-07-09T20:29:39.978Z,39.30
2018-07-09T20:32:06.436Z,39.50
2018-07-09T20:34:32.905Z,39.80
2018-07-09T20:36:59.398Z,39.80
2018-07-09T20:39:25.894Z,40.30
2018-07-09T20:41:52.431Z,40.20
2018-07-09T20:44:18.900Z,40.50
2018-07-09T20:46:45.364Z,40.40
2018-07-09T20:49:11.831Z,40.60
2018-07-09T20:51:38.271Z,40.70
2018-07-09T20:54:05.058Z,41.20
2018-07-09T20:56:31.535Z,41.40
2018-07-09T20:58:57.987Z,41.90
2018-07-09T21:01:24.495Z,41.70
2018-07-09T21:03:55.484Z,42.10
2018-07-09T21:06:21.994Z,41.60
2018-07-09T21:08:48.487Z,41.60
2018-07-09T21:11:15.018Z,42.70
2018-07-09T21:13:41.540Z,43.20
2018-07-09T21:16:08.465Z,43.60
2018-07-09T21:18:34.737Z,44.20
2018-07-09T21:21:01.254Z,44.00
2018-07-09T21:23:27.815Z,44.80
2018-07-09T21:25:54.400Z,44.80
2018-07-09T21:28:20.942Z,44.80
2018-07-09T21:30:47.411Z,45.30
2018-07-09T21:33:13.904Z,46.00
2018-07-09T21:35:40.396Z,45.60
2018-07-09T21:38:06.937Z,45.80
2018-07-09T21:40:33.404Z,46.00
2018-07-09T21:42:59.998Z,46.60
2018-07-09T21:45:26.441Z,46.10
2018-07-09T21:47:59.220Z,46.50
2018-07-09T21:50:19.490Z,46.40
2018-07-09T21:52:46.125Z,47.10
2018-07-09T21:55:17.848Z,46.50
2018-07-09T21:57:44.309Z,47.00
2018-07-09T22:00:14.914Z,47.00
2018-07-09T22:02:46.149Z,47.60
2018-07-09T22:05:13.958Z,48.60
2018-07-09T22:07:40.835Z,48.10
2018-07-09T22:10:07.608Z,48.40
2018-07-09T22:12:34.132Z,49.10
2018-07-09T22:15:01.120Z,49.10
2018-07-09T22:17:28.396Z,49.80
2018-07-09T22:19:54.885Z,49.80
2018-07-09T22:22:21.578Z,49.70
2018-07-09T22:24:48.074Z,49.70
2018-07-09T22:27:18.651Z,49.80
2018-07-09T22:29:45.135Z,49.70
2018-07-09T22:32:13.724Z,50.40
2018-07-09T22:34:42.101Z,49.70
2018-07-09T22:37:15.696Z,49.80
2018-07-09T22:39:44.306Z,49.80
2018-07-09T22:42:29.868Z,49.80
2018-07-09T22:44:57.637Z,49.80
2018-07-09T22:47:26.441Z,49.90
2018-07-09T22:49:56.552Z,49.80
2018-07-09T22:52:24.858Z,49.80
2018-07-09T22:55:10.717Z,49.40
2018-07-09T22:57:39.397Z,49.40
2018-07-09T23:02:46.513Z,49.90
2018-07-09T23:05:14.146Z,49.90
2018-07-09T23:07:41.772Z,49.80
2018-07-09T23:10:20.932Z,49.80
2018-07-09T23:13:58.443Z,49.80
2018-07-09T23:17:42.863Z,49.80
2018-07-09T23:20:21.789Z,51.40
2018-07-09T23:22:48.303Z,51.60
2018-07-09T23:25:14.801Z,51.30
2018-07-09T23:27:41.221Z,52.10
2018-07-09T23:30:07.667Z,52.10
2018-07-09T23:33:15.985Z,52.20
2018-07-09T23:35:48.582Z,52.80
2018-07-09T23:38:19.833Z,52.00
2018-07-09T23:40:46.378Z,51.90
2018-07-09T23:43:16.657Z,52.10
2018-07-09T23:45:44.669Z,52.00
2018-07-09T23:48:14.948Z,52.30
2018-07-09T23:50:41.589Z,52.60
2018-07-09T23:53:09.029Z,53.00
2018-07-09T23:55:36.848Z,52.70
2018-07-09T23:58:35.449Z,52.90
